Time;durP1;ratioP1;P1;durP2;ratioP2;P2;SDS_P1;SDS_P2;PMS_P1;PMS_P2;Temp;Humidity;BMP_temperature;BMP_pressure;BME280_temperature;BME280_humidity;BME280_pressure;Samples;Min_cycle;Max_cycle;Signal;HPM_P1;HPM_P2
2022/12/11 00:00:00;;;;;;;16.90;10.95;;;;;;;-0.32;80.67;100282.09;1717451;81;20981;-74
2022/12/11 00:02:45;;;;;;;17.07;11.95;;;;;;;-0.33;80.62;100283.77;1720565;81;20926;-74
2022/12/11 00:05:30;;;;;;;17.80;10.85;;;;;;;-0.33;80.63;100279.96;1717194;81;20970;-74
2022/12/11 00:08:15;;;;;;;17.05;10.78;;;;;;;-0.31;80.61;100288.89;1719232;81;20918;-74
2022/12/11 00:11:00;;;;;;;18.45;11.75;;;;;;;-0.34;80.60;100282.91;1719092;81;20962;-74
2022/12/11 00:13:45;;;;;;;20.10;12.15;;;;;;;-0.33;80.60;100282.50;1718843;81;21509;-74
2022/12/11 00:16:30;;;;;;;18.75;12.65;;;;;;;-0.32;80.64;100279.14;1717896;81;20918;-74
2022/12/11 00:19:16;;;;;;;16.15;11.08;;;;;;;-0.30;80.62;100279.17;1718677;81;20945;-74
2022/12/11 00:22:01;;;;;;;18.95;11.73;;;;;;;-0.32;80.58;100277.87;1728346;81;21275;-73
2022/12/11 00:24:46;;;;;;;18.52;11.53;;;;;;;-0.33;80.56;100265.99;1720703;81;20994;-74
2022/12/11 00:27:30;;;;;;;16.67;10.72;;;;;;;-0.32;80.53;100263.90;1724958;81;21478;-74
2022/12/11 00:30:15;;;;;;;19.12;12.18;;;;;;;-0.32;80.50;100266.85;1724444;81;20938;-74
2022/12/11 00:33:00;;;;;;;25.80;14.10;;;;;;;-0.35;80.51;100263.83;1727166;81;20898;-74
2022/12/11 00:35:46;;;;;;;18.00;11.85;;;;;;;-0.36;80.50;100262.97;1724087;81;21505;-74
2022/12/11 00:38:31;;;;;;;19.20;11.65;;;;;;;-0.37;80.46;100264.20;1727650;81;20934;-74
2022/12/11 00:41:17;;;;;;;15.68;11.08;;;;;;;-0.39;80.43;100256.97;1722269;81;21403;-74
2022/12/11 00:44:03;;;;;;;17.53;11.90;;;;;;;-0.42;80.40;100257.75;1724428;81;21381;-74
2022/12/11 00:46:48;;;;;;;26.77;14.73;;;;;;;-0.45;80.42;100251.33;1718123;81;20914;-74
2022/12/11 00:49:33;;;;;;;37.67;17.95;;;;;;;-0.43;80.42;100256.45;1716602;81;20930;-74
2022/12/11 00:52:18;;;;;;;27.87;14.83;;;;;;;-0.43;80.43;100259.84;1720304;80;21017;-74
2022/12/11 00:55:03;;;;;;;18.20;12.03;;;;;;;-0.41;80.45;100261.16;1718446;82;21403;-74
2022/12/11 00:57:53;;;;;;;25.40;14.80;;;;;;;-0.44;80.38;100254.73;1720490;81;20903;-74
2022/12/11 01:00:39;;;;;;;16.15;11.45;;;;;;;-0.47;80.32;100254.66;1721275;82;20898;-74
2022/12/11 01:03:24;;;;;;;16.62;10.55;;;;;;;-0.49;80.31;100255.90;1721416;82;20935;-74
2022/12/11 01:06:16;;;;;;;15.68;10.90;;;;;;;-0.50;80.26;100264.75;1721138;82;20903;-74
2022/12/11 01:12:04;;;;;;;12.95;9.35;;;;;;;-0.50;80.26;100256.72;1665535;83;20907;-74
2022/12/11 01:14:50;;;;;;;18.23;10.43;;;;;;;-0.53;80.22;100252.02;1720389;82;20947;-74
2022/12/11 01:17:35;;;;;;;13.95;9.10;;;;;;;-0.55;80.22;100258.33;1718912;82;21340;-74
2022/12/11 01:20:22;;;;;;;14.65;9.65;;;;;;;-0.58;80.20;100251.91;1667715;83;20978;-74
2022/12/11 01:23:07;;;;;;;14.45;9.88;;;;;;;-0.58;80.25;100251.05;1718308;82;20922;-74
2022/12/11 01:25:51;;;;;;;14.07;9.73;;;;;;;-0.57;80.26;100255.31;1720577;80;20975;-74
2022/12/11 01:28:37;;;;;;;16.85;11.25;;;;;;;-0.56;80.29;100250.67;1666956;84;20910;-75
2022/12/11 01:31:22;;;;;;;16.48;9.93;;;;;;;-0.56;80.30;100254.08;1720032;81;20966;-74
2022/12/11 01:34:07;;;;;;;18.80;11.48;;;;;;;-0.56;80.19;100253.22;1718240;82;20954;-74
2022/12/11 01:36:52;;;;;;;14.90;10.35;;;;;;;-0.56;80.23;100247.73;1720917;81;20919;-74
2022/12/11 01:39:37;;;;;;;15.03;10.45;;;;;;;-0.54;80.19;100247.35;1716785;82;20930;-74
2022/12/11 01:42:24;;;;;;;15.93;10.03;;;;;;;-0.55;80.14;100254.52;1720277;82;21417;-73
2022/12/11 01:45:30;;;;;;;15.53;9.95;;;;;;;-0.60;80.10;100252.29;1716647;81;20903;-74
2022/12/11 01:48:21;;;;;;;15.63;10.68;;;;;;;-0.61;80.08;100248.44;1712787;82;20926;-74
2022/12/11 01:51:06;;;;;;;16.75;10.15;;;;;;;-0.60;80.09;100248.48;1713563;82;21578;-74
2022/12/11 01:54:02;;;;;;;16.50;10.80;;;;;;;-0.61;80.07;100244.22;1714755;81;20923;-74
2022/12/11 01:56:47;;;;;;;;;;;;;;;-0.60;80.08;100243.81;1716164;82;21398;-74
2022/12/11 01:59:35;;;;;;;;;;;;;;;-0.58;80.01;100249.38;1721592;82;20121;-74
2022/12/11 02:02:27;;;;;;;13.45;9.30;;;;;;;-0.56;79.98;100249.41;1714000;82;20439;-74
2022/12/11 02:05:12;;;;;;;18.27;10.80;;;;;;;-0.56;80.08;100244.33;1716122;82;20930;-74
2022/12/11 02:08:00;;;;;;;17.02;10.75;;;;;;;-0.55;80.06;100243.50;1669545;83;20903;-74
2022/12/11 02:10:50;;;;;;;14.50;10.45;;;;;;;-0.54;80.08;100249.03;1712087;83;20942;-74
2022/12/11 02:13:49;;;;;;;16.42;10.40;;;;;;;-0.53;80.02;100246.94;1715570;82;21521;-74
2022/12/11 02:16:50;;;;;;;15.90;9.78;;;;;;;-0.54;80.05;100241.41;1709641;82;20951;-73
2022/12/11 02:20:07;;;;;;;14.28;9.03;;;;;;;-0.54;80.02;100238.88;1684797;83;21029;-74
2022/12/11 02:23:18;;;;;;;15.20;9.15;;;;;;;-0.54;79.98;100240.14;1713955;82;20907;-74
2022/12/11 02:26:20;;;;;;;14.83;8.95;;;;;;;-0.55;79.90;100238.02;1712535;81;20998;-74
2022/12/11 02:29:11;;;;;;;13.05;9.23;;;;;;;-0.55;79.94;100232.94;1707809;82;21449;-74
2022/12/11 02:32:01;;;;;;;14.87;10.00;;;;;;;-0.56;79.93;100231.63;1709987;82;21470;-74
2022/12/11 02:34:57;;;;;;;17.25;9.83;;;;;;;-0.56;79.93;100224.02;1710435;82;21407;-73
2022/12/11 02:37:44;;;;;;;;;;;;;;;-0.54;80.00;100223.64;1711983;82;21404;-74
2022/12/11 02:40:33;;;;;;;13.95;8.90;;;;;;;-0.52;79.79;100221.55;1711215;82;20191;-74
2022/12/11 02:43:19;;;;;;;14.70;9.50;;;;;;;-0.54;79.87;100224.50;1709812;82;20966;-74
2022/12/11 02:46:07;;;;;;;13.60;9.20;;;;;;;-0.52;79.90;100220.28;1708509;82;21735;-74
2022/12/11 02:48:53;;;;;;;16.67;9.75;;;;;;;-0.53;79.84;100220.27;1708716;81;21546;-74
2022/12/11 02:51:41;;;;;;;13.75;8.60;;;;;;;-0.53;79.88;100219.00;1709275;83;20926;-73
2022/12/11 02:54:34;;;;;;;15.50;10.38;;;;;;;-0.51;79.94;100221.13;1711308;82;20986;-74
2022/12/11 02:57:24;;;;;;;11.43;8.58;;;;;;;-0.51;79.88;100221.99;1711482;82;21050;-74
2022/12/11 03:00:11;;;;;;;13.53;8.68;;;;;;;-0.51;79.82;100215.64;1707044;83;20938;-74
2022/12/11 03:02:56;;;;;;;14.83;8.93;;;;;;;-0.53;79.77;100213.92;1707051;83;21272;-74
2022/12/11 03:05:42;;;;;;;16.35;9.58;;;;;;;-0.52;79.82;100214.38;1709770;81;20899;-73
2022/12/11 03:08:27;;;;;;;15.68;8.35;;;;;;;-0.52;79.83;100213.93;1708413;81;21016;-74
2022/12/11 03:11:12;;;;;;;11.20;8.28;;;;;;;-0.52;79.76;100219.45;1707301;82;20934;-74
2022/12/11 03:13:58;;;;;;;11.90;8.50;;;;;;;-0.52;79.79;100223.27;1707686;82;20974;-74
2022/12/11 03:17:18;;;;;;;11.20;8.03;;;;;;;-0.55;79.75;100223.19;1707689;81;20914;-73
2022/12/11 03:20:29;;;;;;;12.35;8.05;;;;;;;-0.59;79.67;100217.59;1707433;82;20963;-74
2022/12/11 03:23:41;;;;;;;8.25;6.80;;;;;;;-0.63;79.61;100213.27;1706473;82;20906;-74
2022/12/11 03:26:27;;;;;;;9.05;6.47;;;;;;;-0.67;79.52;100213.61;1708497;82;20974;-74
2022/12/11 03:29:31;;;;;;;7.67;6.45;;;;;;;-0.72;79.50;100217.73;1708656;82;20950;-78
2022/12/11 03:32:21;;;;;;;9.58;6.35;;;;;;;-0.73;79.56;100223.63;1708520;81;21551;-74
2022/12/11 03:35:21;;;;;;;9.58;6.78;;;;;;;-0.72;79.58;100226.62;1707870;82;20907;-74
2022/12/11 03:38:15;;;;;;;11.73;6.90;;;;;;;-0.73;79.54;100222.36;1707166;82;20993;-74
2022/12/11 03:41:03;;;;;;;10.88;7.40;;;;;;;-0.70;79.59;100221.16;1708377;82;21517;-74
2022/12/11 03:43:50;;;;;;;11.38;8.05;;;;;;;-0.69;79.61;100223.73;1706955;82;21494;-74
2022/12/11 03:46:38;;;;;;;11.33;7.62;;;;;;;-0.65;79.64;100225.08;1708416;82;21569;-74
2022/12/11 03:49:27;;;;;;;9.93;6.72;;;;;;;-0.64;79.54;100219.17;1708166;82;20942;-74
2022/12/11 03:52:14;;;;;;;12.82;8.75;;;;;;;-0.62;79.57;100232.77;1706761;83;20990;-74
2022/12/11 03:55:03;;;;;;;8.65;7.25;;;;;;;-0.61;79.59;100239.15;1709252;81;20950;-74
2022/12/11 03:57:48;;;;;;;9.85;7.35;;;;;;;-0.59;79.61;100234.96;1705817;82;21577;-74
2022/12/11 04:00:33;;;;;;;10.53;7.37;;;;;;;-0.56;79.62;100236.71;1707425;82;21439;-74
2022/12/11 04:03:18;;;;;;;11.90;6.60;;;;;;;-0.56;79.53;100236.71;1709238;82;20895;-74
2022/12/11 04:06:03;;;;;;;9.95;7.53;;;;;;;-0.54;79.64;100232.12;1709186;81;22064;-74
2022/12/11 04:08:48;;;;;;;12.73;8.05;;;;;;;-0.52;79.58;100227.89;1708986;81;20957;-74
2022/12/11 04:11:35;;;;;;;12.63;7.97;;;;;;;-0.49;79.62;100229.64;1707969;82;20978;-74
2022/12/11 04:26:33;;;;;;;11.10;7.90;;;;;;;-0.48;79.40;100218.66;1708792;81;20914;-74
2022/12/11 04:29:18;;;;;;;12.00;7.97;;;;;;;-0.50;79.46;100226.25;1707769;82;20938;-74
2022/12/11 04:32:03;;;;;;;11.57;7.80;;;;;;;-0.49;79.48;100226.69;1708251;81;21014;-74
2022/12/11 04:34:49;;;;;;;12.47;8.13;;;;;;;-0.46;79.50;100222.95;1709335;81;21520;-74
2022/12/11 04:37:35;;;;;;;13.95;8.15;;;;;;;-0.48;79.38;100220.79;1710861;81;21555;-74
2022/12/11 04:40:20;;;;;;;11.85;8.08;;;;;;;-0.48;79.40;100223.74;1710542;81;21533;-73
2022/12/11 04:43:05;;;;;;;13.67;8.43;;;;;;;-0.58;79.60;100210.02;1708525;81;21371;-74
2022/12/11 04:45:50;;;;;;;12.43;8.63;;;;;;;-0.58;79.60;100210.02;1710751;82;21443;-73
2022/12/11 04:48:38;;;;;;;14.53;8.68;;;;;;;-0.48;79.41;100218.25;1709491;82;21439;-74
2022/12/11 04:51:24;;;;;;;12.28;8.43;;;;;;;-0.49;79.35;100197.90;1653515;83;21445;-74
2022/12/11 04:54:09;;;;;;;21.68;12.30;;;;;;;-0.51;79.37;100196.59;1714415;82;20934;-74
2022/12/11 04:56:54;;;;;;;14.80;10.70;;;;;;;-0.54;79.29;100190.63;1713569;82;20962;-74
2022/12/11 04:59:39;;;;;;;14.73;10.30;;;;;;;-0.58;79.25;100192.66;1712771;82;20910;-74
2022/12/11 05:02:24;;;;;;;13.58;8.53;;;;;;;-0.62;79.25;100182.84;1712432;82;21496;-74
2022/12/11 05:05:10;;;;;;;14.35;9.48;;;;;;;-0.64;79.26;100187.44;1663690;83;21455;-74
2022/12/11 05:07:55;;;;;;;14.83;9.93;;;;;;;-0.69;79.27;100185.66;1714951;82;20954;-73
2022/12/11 05:10:40;;;;;;;15.88;10.05;;;;;;;-0.72;79.30;100184.31;1665458;84;20903;-74
2022/12/11 05:13:26;;;;;;;11.30;9.18;;;;;;;-0.73;79.33;100180.06;1713379;81;21000;-74
2022/12/11 05:16:15;;;;;;;13.32;8.75;;;;;;;-0.75;79.31;100173.23;1665585;83;20918;-74
2022/12/11 05:19:00;;;;;;;17.77;10.82;;;;;;;-0.75;79.35;100174.50;1710180;82;20949;-74
2022/12/11 05:21:45;;;;;;;15.05;10.30;;;;;;;-0.76;79.31;100164.77;1712334;82;21447;-73
2022/12/11 05:24:30;;;;;;;16.10;10.23;;;;;;;-0.77;79.29;100159.66;1711946;80;20954;-74
2022/12/11 05:27:15;;;;;;;16.87;10.38;;;;;;;-0.78;79.30;100163.02;1711733;82;20950;-74
2022/12/11 05:30:00;;;;;;;12.33;9.55;;;;;;;-0.79;79.29;100158.77;1712967;80;20946;-74
2022/12/11 05:32:45;;;;;;;15.25;11.00;;;;;;;-0.81;79.25;100161.27;1710408;81;21011;-74
2022/12/11 05:35:31;;;;;;;16.75;10.03;;;;;;;-0.84;79.20;100156.53;1714067;80;20938;-74
2022/12/11 05:38:16;;;;;;;15.23;10.48;;;;;;;-0.86;79.21;100151.83;1715021;82;20952;-74
2022/12/11 05:41:04;;;;;;;13.72;9.73;;;;;;;-0.87;79.24;100145.05;1713965;82;20977;-74
2022/12/11 05:43:50;;;;;;;15.03;9.75;;;;;;;-0.91;79.18;100150.88;1664735;84;20934;-74
2022/12/11 05:46:34;;;;;;;17.77;12.07;;;;;;;-0.94;79.10;100145.31;1711151;82;20961;-74
2022/12/11 05:49:20;;;;;;;63.95;27.90;;;;;;;-0.97;79.12;100148.19;1710484;81;20955;-73
2022/12/11 05:52:05;;;;;;;21.77;13.00;;;;;;;-1.01;79.10;100153.20;1712062;82;21364;-74
2022/12/11 05:54:50;;;;;;;25.95;14.25;;;;;;;-1.03;79.09;100148.91;1673426;83;21403;-74
2022/12/11 05:57:35;;;;;;;34.55;16.70;;;;;;;-1.04;79.12;100142.16;1671745;83;20982;-73
2022/12/11 06:00:20;;;;;;;22.82;14.68;;;;;;;-1.06;79.10;100142.12;1672961;83;20920;-74
2022/12/11 06:03:05;;;;;;;64.37;27.00;;;;;;;-1.08;79.13;100138.69;1672238;83;20983;-74
2022/12/11 06:05:50;;;;;;;20.02;13.20;;;;;;;-1.08;79.10;100137.42;1672031;83;20967;-74
2022/12/11 06:08:35;;;;;;;15.48;10.90;;;;;;;-1.08;79.12;100143.77;1670585;84;21039;-73
2022/12/11 06:11:20;;;;;;;16.90;11.45;;;;;;;-1.11;78.98;100146.64;1670565;83;21492;-74
2022/12/11 06:14:05;;;;;;;;;;;;;;;-1.17;79.02;100157.50;1674011;83;20977;-74
2022/12/11 06:16:50;;;;;;;16.57;11.05;;;;;;;-1.20;78.91;100154.03;1670139;83;20166;-74
2022/12/11 06:19:35;;;;;;;16.60;11.17;;;;;;;-1.26;78.95;100153.47;1671956;83;21015;-74
2022/12/11 06:22:20;;;;;;;15.78;10.40;;;;;;;-1.26;79.04;100157.69;1671088;84;20940;-74
2022/12/11 06:25:06;;;;;;;13.65;10.25;;;;;;;-1.27;78.97;100173.31;1672250;84;20908;-74
2022/12/11 06:27:51;;;;;;;17.65;11.10;;;;;;;-1.27;78.97;100172.45;1673842;82;21301;-74
2022/12/11 06:30:36;;;;;;;15.90;9.75;;;;;;;-1.30;78.87;100166.90;1672719;84;21460;-74
2022/12/11 06:33:21;;;;;;;16.32;10.08;;;;;;;-1.32;78.88;100162.61;1672224;83;20939;-74
2022/12/11 06:36:11;;;;;;;15.93;10.20;;;;;;;-1.37;78.77;100168.42;1671493;83;20936;-74
2022/12/11 06:38:55;;;;;;;14.80;10.05;;;;;;;-1.39;78.77;100174.28;1672741;84;20936;-73
2022/12/11 06:41:40;;;;;;;12.80;8.80;;;;;;;-1.42;78.75;100174.20;1674773;84;20964;-74
2022/12/11 06:44:26;;;;;;;14.28;10.40;;;;;;;-1.44;78.74;100173.30;1673001;83;21422;-74
2022/12/11 06:47:10;;;;;;;14.43;9.73;;;;;;;-1.46;78.69;100175.80;1674152;84;21646;-74
2022/12/11 06:49:56;;;;;;;12.73;8.93;;;;;;;-1.49;78.64;100171.06;1670714;83;20936;-74
2022/12/11 06:52:41;;;;;;;17.02;10.53;;;;;;;-1.50;78.61;100168.08;1666421;83;21504;-73
2022/12/11 06:55:26;;;;;;;17.87;10.93;;;;;;;-1.51;78.64;100175.23;1666138;85;20931;-74
2022/12/11 06:58:11;;;;;;;19.02;10.98;;;;;;;-1.51;78.62;100173.97;1667553;84;21452;-74
2022/12/11 07:00:56;;;;;;;14.85;10.15;;;;;;;-1.54;78.54;100176.42;1666322;83;20980;-74
2022/12/11 07:03:41;;;;;;;14.87;10.53;;;;;;;-1.57;78.56;100164.97;1666533;84;20999;-74
2022/12/11 07:06:28;;;;;;;15.80;10.83;;;;;;;-1.59;78.59;100157.33;1669378;84;20923;-75
2022/12/11 07:09:13;;;;;;;13.40;10.50;;;;;;;-1.59;78.54;100157.73;1669092;84;21387;-76
2022/12/11 07:11:58;;;;;;;12.05;7.75;;;;;;;-1.61;78.51;100147.97;1668963;83;20948;-76
2022/12/11 07:14:43;;;;;;;14.55;10.28;;;;;;;-1.61;78.59;100150.09;1665533;84;21587;-76
2022/12/11 07:17:28;;;;;;;14.25;9.38;;;;;;;-1.60;78.60;100142.94;1666334;84;20949;-76
2022/12/11 07:20:14;;;;;;;15.58;10.75;;;;;;;-1.60;78.55;100137.01;1667531;85;20920;-76
2022/12/11 07:22:59;;;;;;;15.55;10.32;;;;;;;-1.59;78.59;100140.84;1668537;83;21610;-76
2022/12/11 07:25:43;;;;;;;14.20;10.40;;;;;;;-1.57;78.55;100151.03;1666322;84;20972;-76
2022/12/11 07:28:28;;;;;;;13.43;9.60;;;;;;;-1.59;78.57;100156.47;1665571;84;20992;-76
2022/12/11 07:31:19;;;;;;;18.45;10.98;;;;;;;-1.58;78.53;100159.45;1666313;83;21380;-73
2022/12/11 07:34:05;;;;;;;16.12;10.78;;;;;;;-1.59;78.42;100161.12;1664904;84;21011;-74
2022/12/11 07:36:50;;;;;;;22.52;12.37;;;;;;;-1.64;78.44;100158.03;1664050;84;20963;-74
2022/12/11 07:39:35;;;;;;;14.35;9.03;;;;;;;-1.68;78.47;100164.28;1667581;83;21607;-74
2022/12/11 07:42:20;;;;;;;17.80;11.18;;;;;;;-1.68;78.41;100164.70;1667172;84;20931;-74
2022/12/11 07:45:06;;;;;;;19.85;12.68;;;;;;;-1.67;78.51;100161.34;1666703;83;20971;-73
2022/12/11 07:47:51;;;;;;;19.77;12.35;;;;;;;-1.65;78.48;100162.65;1665831;84;21490;-73
2022/12/11 07:50:37;;;;;;;19.87;12.80;;;;;;;-1.64;78.43;100166.91;1646930;85;156559;-74
2022/12/11 07:53:21;;;;;;;21.80;12.82;;;;;;;-1.63;78.46;100172.42;1647021;85;21574;-74
2022/12/11 07:56:07;;;;;;;25.15;13.25;;;;;;;-1.61;78.45;100175.44;1645972;85;20917;-74
2022/12/11 07:58:52;;;;;;;23.52;13.43;;;;;;;-1.57;78.52;100178.91;1648437;84;20929;-73
2022/12/11 08:01:38;;;;;;;19.62;12.40;;;;;;;-1.55;78.56;100178.10;1646850;86;21601;-74
2022/12/11 08:04:23;;;;;;;30.55;17.65;;;;;;;-1.49;78.51;100179.94;1647474;85;20933;-74
2022/12/11 08:07:08;;;;;;;28.07;16.42;;;;;;;-1.46;78.54;100183.41;1645306;85;20926;-74
2022/12/11 08:09:53;;;;;;;34.50;16.60;;;;;;;-1.40;78.54;100187.37;1647224;85;21022;-74
2022/12/11 08:12:38;;;;;;;18.65;12.50;;;;;;;-1.38;78.47;100187.00;1647086;85;20937;-74
2022/12/11 08:15:23;;;;;;;16.48;11.08;;;;;;;-1.36;78.52;100187.03;1647316;85;20973;-74
2022/12/11 08:18:08;;;;;;;22.55;13.55;;;;;;;-1.34;78.53;100171.04;1646273;85;21471;-74
2022/12/11 08:20:53;;;;;;;20.55;13.08;;;;;;;-1.29;78.55;100167.76;1646327;84;21483;-74
2022/12/11 08:23:38;;;;;;;21.68;13.25;;;;;;;-1.26;78.58;100166.16;1651486;84;20949;-74
2022/12/11 08:26:30;;;;;;;21.35;12.33;;;;;;;-1.21;78.56;100158.66;1646268;84;20910;-74
2022/12/11 08:29:15;;;;;;;16.87;11.28;;;;;;;-1.17;78.53;100164.25;1648578;85;21541;-74
2022/12/11 08:32:00;;;;;;;18.42;11.45;;;;;;;-1.15;78.58;100171.08;1645624;85;20969;-74
2022/12/11 08:34:45;;;;;;;17.57;11.50;;;;;;;-1.13;78.51;100168.58;1646482;85;21469;-74
2022/12/11 08:37:30;;;;;;;16.57;11.70;;;;;;;-1.13;78.51;100169.84;1646057;84;21537;-74
2022/12/11 08:40:15;;;;;;;17.42;12.18;;;;;;;-1.12;78.56;100166.08;1647407;85;21488;-74
2022/12/11 08:42:59;;;;;;;17.77;11.40;;;;;;;-1.08;78.59;100156.86;1647038;85;21033;-74
2022/12/11 08:45:45;;;;;;;24.18;14.30;;;;;;;-1.09;78.48;100156.41;1648097;85;20973;-74
2022/12/11 08:48:30;;;;;;;22.87;13.18;;;;;;;-1.08;78.55;100160.25;1647847;85;21513;-74
2022/12/11 08:51:19;;;;;;;17.67;11.60;;;;;;;-1.04;78.57;100155.66;1648241;85;21008;-74
2022/12/11 08:54:04;;;;;;;51.25;20.80;;;;;;;-1.01;78.50;100145.59;1647328;84;20958;-75
2022/12/11 08:56:49;;;;;;;18.25;11.15;;;;;;;-0.98;78.47;100141.41;1649929;85;21974;-75
2022/12/11 08:59:34;;;;;;;19.67;11.88;;;;;;;-0.96;78.48;100133.41;1647100;85;21477;-75
2022/12/11 09:02:19;;;;;;;24.25;14.63;;;;;;;-0.96;78.52;100128.34;1649631;84;20945;-75
2022/12/11 09:05:06;;;;;;;20.80;12.98;;;;;;;-0.92;78.51;100122.09;1649253;84;21549;-75
2022/12/11 09:07:51;;;;;;;31.82;16.23;;;;;;;-0.87;78.55;100131.08;1648832;85;21340;-75
2022/12/11 09:10:36;;;;;;;20.62;12.23;;;;;;;-0.86;78.47;100127.31;1651083;85;21576;-75
2022/12/11 09:13:21;;;;;;;19.50;12.13;;;;;;;-0.84;78.49;100138.36;1653306;85;21600;-75
2022/12/11 09:16:13;;;;;;;17.57;10.43;;;;;;;-0.82;78.50;100139.25;1652345;84;20917;-75
2022/12/11 09:18:59;;;;;;;15.80;11.05;;;;;;;-0.81;78.47;100140.11;1648796;84;21858;-75
2022/12/11 09:21:44;;;;;;;16.45;11.35;;;;;;;-0.81;78.45;100134.61;1645131;86;20918;-75
2022/12/11 09:24:29;;;;;;;15.32;10.28;;;;;;;-0.80;78.50;100135.47;1648906;85;20933;-75
2022/12/11 09:27:14;;;;;;;17.42;10.90;;;;;;;-0.81;78.47;100127.00;1648699;84;21422;-75
2022/12/11 09:29:59;;;;;;;16.95;11.12;;;;;;;-0.80;78.51;100123.64;1649341;85;21359;-75
2022/12/11 09:32:44;;;;;;;20.35;12.82;;;;;;;-0.80;78.50;100118.97;1653002;85;21535;-75
2022/12/11 09:35:29;;;;;;;18.70;12.07;;;;;;;-0.79;78.53;100117.73;1649280;84;21387;-75
2022/12/11 09:38:14;;;;;;;17.77;10.78;;;;;;;-0.77;78.51;100113.55;1649894;84;20982;-75
2022/12/11 09:41:00;;;;;;;34.98;20.20;;;;;;;-0.77;78.48;100115.23;1650287;84;20981;-75
2022/12/11 09:44:14;;;;;;;16.23;11.18;;;;;;;-0.76;78.50;100110.19;1651558;85;20933;-75
2022/12/11 09:47:00;;;;;;;22.22;13.38;;;;;;;-0.74;78.50;100105.14;1647189;85;21488;-75
2022/12/11 09:49:49;;;;;;;16.70;11.48;;;;;;;-0.72;78.52;100101.81;1651821;84;21122;-75
2022/12/11 09:52:48;;;;;;;16.02;11.25;;;;;;;-0.71;78.48;100109.88;1655128;85;20952;-75
2022/12/11 09:55:44;;;;;;;31.02;17.67;;;;;;;-0.69;78.51;100104.42;1660673;85;21038;-75
2022/12/11 09:58:44;;;;;;;;;;;;;;;-0.66;78.57;100102.36;1661846;85;21450;-75
2022/12/11 10:01:58;;;;;;;16.95;11.70;;;;;;;-0.59;78.53;100090.23;1671107;81;20199;-75
2022/12/11 10:05:27;;;;;;;13.95;9.58;;;;;;;-0.57;78.52;100092.80;1668020;83;20938;-75
2022/12/11 10:08:42;;;;;;;20.12;14.23;;;;;;;-0.57;78.45;100087.73;1642311;85;20917;-75
2022/12/11 10:11:43;;;;;;;;;;;;;;;-0.53;78.55;100088.23;1642728;85;21595;-75
2022/12/11 10:14:54;;;;;;;19.35;11.73;;;;;;;-0.49;78.32;100087.02;1654100;84;20143;-75
2022/12/11 10:17:40;;;;;;;24.82;14.13;;;;;;;-0.52;78.40;100078.08;1636412;84;20955;-75
2022/12/11 10:20:35;;;;;;;19.10;12.47;;;;;;;-0.49;78.46;100076.86;1633942;85;21524;-75
2022/12/11 10:23:28;;;;;;;19.85;12.10;;;;;;;-0.47;78.48;100073.94;1635209;85;20932;-75
2022/12/11 10:26:22;;;;;;;16.77;11.63;;;;;;;-0.43;78.50;100072.32;1710701;81;20912;-75
2022/12/11 10:29:14;;;;;;;16.42;11.40;;;;;;;-0.39;78.52;100069.02;1705410;81;21020;-75
2022/12/11 10:31:59;;;;;;;15.25;10.85;;;;;;;-0.39;78.41;100071.14;1703719;81;20900;-75
2022/12/11 10:34:47;;;;;;;66.45;28.67;;;;;;;-0.39;78.43;100064.79;1704188;81;21408;-75
2022/12/11 10:37:31;;;;;;;23.02;13.13;;;;;;;-0.37;78.44;100066.09;1706902;81;20932;-75
2022/12/11 10:40:19;;;;;;;31.40;18.00;;;;;;;-0.36;78.30;100057.64;1703554;81;21356;-75
2022/12/11 10:43:04;;;;;;;14.55;10.82;;;;;;;-0.42;78.28;100055.84;1703935;81;21052;-75
2022/12/11 10:45:53;;;;;;;13.97;10.23;;;;;;;-0.43;78.23;100061.75;1705498;81;21893;-75
2022/12/11 10:48:49;;;;;;;16.75;10.82;;;;;;;-0.48;78.13;100048.11;1708147;81;21063;-75
2022/12/11 10:51:36;;;;;;;15.45;9.95;;;;;;;-0.49;78.28;100048.93;1704813;81;21062;-75
2022/12/11 10:54:43;;;;;;;14.60;9.98;;;;;;;-0.48;78.17;100049.38;1703591;81;21342;-75
2022/12/11 10:57:35;;;;;;;14.23;9.53;;;;;;;-0.46;78.22;100041.78;1706435;81;20971;-75
2022/12/11 11:00:32;;;;;;;15.88;10.63;;;;;;;-0.44;78.22;100035.91;1704099;81;21055;-75
2022/12/11 11:03:26;;;;;;;15.15;10.10;;;;;;;-0.43;78.21;100030.00;1704121;81;21467;-75
2022/12/11 11:06:18;;;;;;;14.53;9.43;;;;;;;-0.40;78.22;100021.17;1704453;81;21143;-76
2022/12/11 11:09:03;;;;;;;18.52;11.10;;;;;;;-0.39;78.15;100024.16;1701056;81;21106;-75
2022/12/11 11:11:50;;;;;;;16.40;10.95;;;;;;;-0.39;78.15;100012.72;1702659;81;21471;-75
2022/12/11 11:14:35;;;;;;;41.50;21.60;;;;;;;-0.38;78.18;100005.96;1703335;81;21047;-75
2022/12/11 11:17:21;;;;;;;18.73;11.45;;;;;;;-0.35;78.16;100001.80;1702416;81;21520;-75
2022/12/11 11:20:14;;;;;;;15.18;10.05;;;;;;;-0.31;78.18;99999.31;1701695;81;21059;-75
2022/12/11 11:23:03;;;;;;;13.58;9.65;;;;;;;-0.31;78.04;99995.09;1702699;81;21417;-75
2022/12/11 11:25:58;;;;;;;19.62;12.45;;;;;;;-0.32;77.98;99987.44;1704268;81;20920;-75
2022/12/11 11:28:51;;;;;;;17.67;10.93;;;;;;;-0.30;78.10;99985.36;1690541;82;434289;-75
2022/12/11 11:31:36;;;;;;;14.23;10.30;;;;;;;-0.27;78.01;99982.88;1702418;81;20940;-75
2022/12/11 11:34:21;;;;;;;12.25;8.45;;;;;;;-0.25;78.06;99983.77;1703325;81;21374;-75
2022/12/11 11:37:09;;;;;;;13.50;8.95;;;;;;;-0.25;77.91;99983.77;1704182;81;20960;-75
2022/12/11 11:39:59;;;;;;;15.10;10.82;;;;;;;-0.25;77.97;99981.22;1699255;81;21414;-75
2022/12/11 11:43:01;;;;;;;15.10;10.05;;;;;;;-0.23;78.01;99979.56;1703779;81;20908;-75
2022/12/11 11:45:54;;;;;;;12.78;8.23;;;;;;;-0.19;78.03;99986.82;1704149;81;20940;-75
2022/12/11 11:48:59;;;;;;;13.43;8.03;;;;;;;-0.14;78.07;99985.22;1704408;81;20996;-75
2022/12/11 11:52:04;;;;;;;11.83;8.50;;;;;;;-0.10;78.04;99985.70;1705023;81;21818;-75
2022/12/11 11:55:02;;;;;;;17.75;9.45;;;;;;;-0.09;78.01;99990.81;1696190;83;20940;-75
2022/12/11 11:58:01;;;;;;;15.88;9.70;;;;;;;-0.11;77.87;99978.91;1696854;83;20912;-75
2022/12/11 12:00:47;;;;;;;13.62;8.95;;;;;;;-0.11;77.97;99985.27;1694055;83;21035;-74
2022/12/11 12:03:32;;;;;;;15.72;9.80;;;;;;;-0.08;78.04;99983.64;1696615;83;21016;-75
2022/12/11 12:06:22;;;;;;;15.90;10.32;;;;;;;-0.07;77.97;99973.05;1697074;82;21895;-75
2022/12/11 12:09:57;;;;;;;19.17;11.73;;;;;;;-0.04;78.06;99974.38;1695612;83;20932;-75
2022/12/11 12:12:56;;;;;;;14.90;9.70;;;;;;;-0.01;78.00;99969.34;1696358;83;21024;-75
2022/12/11 12:15:46;;;;;;;16.15;9.75;;;;;;;-0.02;77.99;99965.95;1697228;83;20964;-75
2022/12/11 12:18:53;;;;;;;16.52;9.75;;;;;;;-0.01;77.95;99957.49;1696685;83;21441;-75
2022/12/11 12:21:41;;;;;;;9.35;7.08;;;;;;;-0.01;78.01;99960.03;1696036;82;20968;-75
2022/12/11 12:24:40;;;;;;;11.05;6.72;;;;;;;0.00;78.00;99957.90;1683252;83;21556;-75
2022/12/11 12:27:36;;;;;;;10.15;6.58;;;;;;;-0.01;78.03;99957.91;1696569;82;21390;-75
2022/12/11 12:30:21;;;;;;;10.98;7.20;;;;;;;-0.03;78.04;99955.34;1696111;82;20889;-75
2022/12/11 12:33:29;;;;;;;9.23;6.97;;;;;;;-0.05;77.94;99949.80;1700040;82;528381;-75
2022/12/11 12:36:19;;;;;;;11.30;8.20;;;;;;;-0.03;78.05;99948.13;1720324;80;21870;-75
2022/12/11 12:39:09;;;;;;;10.82;7.55;;;;;;;-0.02;77.98;99943.49;1718666;82;20925;-75
2022/12/11 12:42:41;;;;;;;10.72;7.00;;;;;;;-0.02;78.00;99946.89;1705710;83;20928;-75
2022/12/11 12:45:31;;;;;;;9.80;7.42;;;;;;;-0.03;77.97;99946.45;1705689;83;21928;-75
2022/12/11 12:48:16;;;;;;;10.20;7.15;;;;;;;-0.04;77.98;99936.26;1706594;82;20973;-75
2022/12/11 12:51:02;;;;;;;13.20;7.90;;;;;;;-0.04;78.00;99933.72;1704459;83;20937;-75
2022/12/11 12:53:55;;;;;;;10.63;8.65;;;;;;;-0.04;78.01;99932.45;1702549;83;22030;-75
2022/12/11 12:56:42;;;;;;;10.32;7.67;;;;;;;-0.04;78.02;99926.95;1707299;81;20944;-75
2022/12/11 12:59:27;;;;;;;9.90;7.12;;;;;;;-0.03;77.98;99925.27;1704638;81;21005;-75
2022/12/11 13:02:15;;;;;;;9.75;6.97;;;;;;;-0.04;78.01;99921.87;1692452;81;21032;-75
2022/12/11 13:05:06;;;;;;;11.12;7.47;;;;;;;-0.04;77.97;99921.87;1706895;81;21016;-75
2022/12/11 13:07:55;;;;;;;10.63;7.30;;;;;;;-0.04;78.02;99914.66;1704468;81;180116;-75